Terminal Aerodrome Forecast
Issued by NWS

Home | Current Version | Previous Version | Text Only | Print | Product List | Glossary On
Versions: 1 2 3 4 5 6 7 8 9 10 11 12 13 14 15
000
FTUS45 KTFX 261120
TAFBZN
TAF
KBZN 261120Z 2612/2712 24004KT P6SM VCSH BKN060
     FM261900 30007KT P6SM VCTS SCT050CB BKN080
      TEMPO 2620/2624 -SHRA BKN040
     FM270600 15006KT P6SM BKN100=

USA.gov is the U.S. government's official web portal to all federal, state and local government web resources and services.